Time;durP1;ratioP1;P1;durP2;ratioP2;P2;SDS_P1;SDS_P2;PMS_P1;PMS_P2;Temp;Humidity;BMP_temperature;BMP_pressure;BME280_temperature;BME280_humidity;BME280_pressure;Samples;Min_cycle;Max_cycle;Signal;HPM_P1;HPM_P2
2021/04/11 00:00:36;;;;;;;55.15;28.62;;;;;;;4.40;58.19;99148.51;4542069;78;21472;-92
2021/04/11 00:06:39;;;;;;;61.88;26.37;;;;;;;4.37;58.37;99143.75;4517584;77;21111;-91
2021/04/11 00:12:41;;;;;;;48.17;24.85;;;;;;;4.29;59.06;99137.83;4486392;79;21138;-92
2021/04/11 00:18:43;;;;;;;43.23;23.75;;;;;;;4.25;59.00;99135.56;4460799;78;21176;-92
2021/04/11 00:24:44;;;;;;;42.38;22.15;;;;;;;4.24;59.16;99135.34;4465244;78;21564;-90
2021/04/11 00:30:47;;;;;;;41.15;19.80;;;;;;;4.21;59.38;99124.36;4498122;79;21158;-91
2021/04/11 00:36:49;;;;;;;37.50;18.85;;;;;;;4.26;59.54;99119.52;4519773;77;21161;-92
2021/04/11 00:43:13;;;;;;;37.50;18.75;;;;;;;4.22;59.88;99117.25;4604852;77;21114;-92
2021/04/11 00:49:43;;;;;;;34.10;18.70;;;;;;;4.18;60.06;99118.25;4538501;77;21139;-91
2021/04/11 00:55:48;;;;;;;32.38;18.05;;;;;;;4.05;60.43;99111.95;4529561;79;21158;-90
2021/04/11 01:01:50;;;;;;;35.70;17.87;;;;;;;4.01;61.39;99123.78;4529821;79;21281;-93
2021/04/11 01:07:54;;;;;;;32.00;15.55;;;;;;;4.10;61.45;99117.16;4528266;79;21154;-90
2021/04/11 01:14:01;;;;;;;34.40;16.42;;;;;;;3.91;60.79;99115.48;4453066;79;21140;-90
2021/04/11 01:20:09;;;;;;;34.75;19.12;;;;;;;4.00;61.79;99113.50;4596253;77;21542;-92
2021/04/11 01:26:15;;;;;;;51.98;24.70;;;;;;;4.06;61.92;99124.92;4608026;77;21140;-92
2021/04/11 01:32:19;;;;;;;51.02;23.85;;;;;;;3.80;61.95;99130.52;4601910;77;21162;-90
2021/04/11 01:38:25;;;;;;;44.95;21.80;;;;;;;3.62;62.58;99147.17;4537087;77;21340;-91
2021/04/11 01:44:33;;;;;;;56.23;25.23;;;;;;;3.40;64.62;99150.13;4478141;79;21140;-91
2021/04/11 01:50:39;;;;;;;65.37;29.18;;;;;;;3.61;64.10;99142.86;4530638;79;21901;-92
2021/04/11 01:56:43;;;;;;;55.75;26.30;;;;;;;3.63;63.82;99139.28;4505315;79;21139;-93
2021/04/11 02:02:48;;;;;;;56.23;24.90;;;;;;;3.58;64.18;99138.09;4456961;79;21127;-89
2021/04/11 02:09:01;;;;;;;53.27;22.43;;;;;;;3.72;64.46;99134.05;4498686;79;21154;-91
2021/04/11 02:15:29;;;;;;;54.90;26.07;;;;;;;3.40;63.69;99124.42;4522208;79;21178;-91
2021/04/11 02:21:31;;;;;;;60.80;28.80;;;;;;;3.30;64.14;99137.74;4523376;79;21133;-90
2021/04/11 02:27:35;;;;;;;45.48;22.65;;;;;;;3.20;64.72;99129.96;4516361;79;21156;-90
2021/04/11 02:33:37;;;;;;;47.13;22.52;;;;;;;3.05;64.78;99138.03;4520373;79;21288;-91
2021/04/11 02:39:42;;;;;;;46.30;20.90;;;;;;;2.97;65.43;99124.00;4527020;79;21162;-88
2021/04/11 02:45:47;;;;;;;40.60;19.20;;;;;;;2.94;65.46;99125.19;4496592;78;21103;-90
2021/04/11 02:51:53;;;;;;;38.78;17.73;;;;;;;2.86;65.54;99123.30;4488211;79;21121;-90
2021/04/11 02:57:56;;;;;;;31.35;17.10;;;;;;;2.63;65.01;99121.33;4526715;78;21238;-92
2021/04/11 03:03:59;;;;;;;41.55;18.82;;;;;;;2.50;65.91;99125.56;4462942;79;21268;-90
2021/04/11 03:10:09;;;;;;;45.78;21.50;;;;;;;2.26;66.10;99103.08;4436249;80;21225;-90
2021/04/11 03:16:13;;;;;;;36.08;17.20;;;;;;;2.31;66.70;99127.78;4483674;77;21174;-90
2021/04/11 03:22:18;;;;;;;40.98;19.05;;;;;;;2.32;66.63;99127.47;4545699;77;21611;-91
2021/04/11 03:28:31;;;;;;;40.15;19.98;;;;;;;2.23;66.90;99125.33;4603471;77;21130;-92
2021/04/11 03:34:37;;;;;;;44.27;23.05;;;;;;;2.05;66.65;99125.05;4544703;77;21142;-91
2021/04/11 03:40:45;;;;;;;32.30;15.93;;;;;;;1.93;67.75;99106.56;4382928;81;21155;-91
2021/04/11 03:54:22;;;;;;;50.17;22.13;;;;;;;1.76;67.95;99101.10;4417522;80;21126;-90
2021/04/11 04:00:33;;;;;;;40.08;19.27;;;;;;;1.76;67.95;99101.10;4419743;79;21216;-91
2021/04/11 04:06:36;;;;;;;37.28;18.92;;;;;;;1.75;68.57;99110.31;4481588;79;21138;-92
2021/04/11 04:13:05;;;;;;;61.02;29.50;;;;;;;2.07;68.92;99103.94;4436277;79;21166;-90
2021/04/11 04:19:22;;;;;;;39.33;19.37;;;;;;;1.86;68.44;99093.52;4496457;79;21163;-92
2021/04/11 04:25:55;;;;;;;49.13;22.67;;;;;;;1.70;68.17;99087.52;4410370;79;21286;-92
2021/04/11 04:32:24;;;;;;;50.80;23.85;;;;;;;1.66;70.30;99099.48;4396497;80;21544;-91
2021/04/11 04:38:45;;;;;;;53.02;25.75;;;;;;;1.91;69.55;99112.24;4332522;80;21271;-92
2021/04/11 04:45:06;;;;;;;49.23;22.27;;;;;;;2.13;69.22;99108.64;4397715;80;21161;-91
2021/04/11 04:58:25;;;;;;;55.60;23.57;;;;;;;2.49;70.18;99101.02;4491094;79;21086;-93
2021/04/11 05:04:35;;;;;;;45.38;20.17;;;;;;;2.54;69.82;99071.10;4508877;78;21252;-91
2021/04/11 05:11:03;;;;;;;33.13;16.02;;;;;;;2.54;69.82;99071.10;4512959;79;21126;-93
2021/04/11 05:17:24;;;;;;;34.83;17.23;;;;;;;3.02;69.96;99100.81;4378510;81;21281;-93
2021/04/11 05:24:00;;;;;;;32.15;16.02;;;;;;;3.40;70.39;99106.83;4490953;79;21157;-92
2021/04/11 05:30:24;;;;;;;34.88;16.32;;;;;;;3.84;69.80;99116.54;4537905;77;21319;-92
2021/04/11 05:36:53;;;;;;;34.25;13.83;;;;;;;4.18;69.54;99102.77;4528188;77;21273;-93
2021/04/11 05:43:06;;;;;;;35.92;15.65;;;;;;;4.54;69.41;99100.82;4435112;79;21643;-91
2021/04/11 05:49:20;;;;;;;30.12;16.27;;;;;;;4.99;69.14;99098.13;4478922;79;21151;-92
2021/04/11 05:55:39;;;;;;;30.90;15.08;;;;;;;5.44;68.85;99088.02;4471937;79;21124;-93
2021/04/11 06:01:48;;;;;;;30.85;15.32;;;;;;;6.04;68.34;99092.11;4489755;79;21533;-93
2021/04/11 06:08:14;;;;;;;29.67;13.90;;;;;;;6.62;68.18;99077.89;4508926;77;21158;-94
2021/04/11 06:15:07;;;;;;;;;;;;;;;;;;;;;
2021/04/11 06:21:40;;;;;;;20.62;11.63;;;;;;;8.29;66.94;99077.54;4598611;76;23676;-92
2021/04/11 06:28:11;;;;;;;20.08;9.55;;;;;;;9.00;66.18;99077.25;4498851;79;21136;-94
2021/04/11 06:41:54;;;;;;;26.37;12.63;;;;;;;10.73;64.72;99051.34;4512784;78;20093;-94
2021/04/11 06:48:48;;;;;;;14.03;8.38;;;;;;;11.36;64.03;99047.08;4527427;79;21164;-93
2021/04/11 07:03:05;;;;;;;;;;;;;;;;;;;;;
2021/04/11 07:09:51;;;;;;;6.22;3.12;;;;;;;13.12;50.61;99043.95;4138699;82;21327;-93
2021/04/11 07:16:34;;;;;;;6.47;3.27;;;;;;;13.64;52.90;99027.47;4247073;82;21211;-93
2021/04/11 07:22:57;;;;;;;5.28;2.52;;;;;;;14.25;52.76;99024.82;4352214;82;21732;-93
2021/04/11 07:29:32;;;;;;;4.67;2.95;;;;;;;14.55;48.41;99033.37;4220423;82;21154;-94
2021/04/11 07:36:20;;;;;;;6.65;2.40;;;;;;;14.96;47.94;99034.94;4202437;82;21185;-92
2021/04/11 07:43:14;;;;;;;6.78;2.70;;;;;;;15.51;45.33;99042.08;4272404;83;21169;-93
2021/04/11 07:49:39;;;;;;;6.00;2.62;;;;;;;15.90;42.09;99032.07;4260993;82;21930;-91
2021/04/11 07:56:39;;;;;;;10.65;2.50;;;;;;;16.16;42.81;99020.97;4159637;84;21174;-94
2021/04/11 08:03:19;;;;;;;6.00;3.00;;;;;;;16.46;39.90;99025.97;4280263;82;21173;-93
2021/04/11 08:21:09;;;;;;;5.65;2.40;;;;;;;17.29;37.45;99009.23;4381048;78;22327;-93
2021/04/11 08:28:08;;;;;;;4.20;2.33;;;;;;;17.31;34.31;99015.11;4256455;83;21144;-92
2021/04/11 08:34:49;;;;;;;6.55;3.00;;;;;;;17.75;35.23;99025.30;4291491;80;21178;-93
2021/04/11 08:41:25;;;;;;;9.05;2.92;;;;;;;17.88;34.57;99019.94;4307390;80;21146;-94
2021/04/11 08:54:50;;;;;;;5.75;1.55;;;;;;;18.53;31.39;99017.70;4308504;80;20198;-94
2021/04/11 09:01:15;;;;;;;3.67;1.65;;;;;;;19.17;33.64;99006.03;4291132;81;21533;-95
2021/04/11 09:08:01;;;;;;;2.65;1.30;;;;;;;18.84;30.46;99009.31;4322055;81;21469;-94
2021/04/11 09:14:45;;;;;;;6.12;1.17;;;;;;;18.40;31.04;99010.64;4266394;80;21618;-93
2021/04/11 09:21:16;;;;;;;2.37;1.30;;;;;;;18.82;31.40;98999.88;4274560;81;21146;-93
2021/04/11 09:28:12;;;;;;;1.70;0.88;;;;;;;20.08;30.34;99017.03;4247716;81;21199;-93
2021/04/11 09:35:04;;;;;;;6.35;1.20;;;;;;;21.55;28.66;99002.13;4276883;80;21169;-92
2021/04/11 09:41:33;;;;;;;2.12;1.00;;;;;;;22.75;30.85;98998.72;4264621;80;21221;-92
2021/04/11 09:47:58;;;;;;;2.87;0.90;;;;;;;23.56;26.90;98979.36;4382051;80;21181;-92
2021/04/11 09:54:15;;;;;;;3.12;1.00;;;;;;;23.71;25.98;98971.95;4412380;80;21364;-93
2021/04/11 10:00:36;;;;;;;3.77;1.57;;;;;;;23.93;25.36;98966.38;4398951;80;21186;-91
2021/04/11 10:07:34;;;;;;;1.95;1.17;;;;;;;24.64;24.54;98971.80;4411551;80;21165;-95
2021/04/11 10:14:06;;;;;;;4.17;1.60;;;;;;;22.99;24.46;98973.24;4365104;80;21180;-91
2021/04/11 10:20:37;;;;;;;2.17;0.90;;;;;;;22.99;24.46;98973.24;4407505;80;21186;-91
2021/04/11 10:27:00;;;;;;;3.22;1.40;;;;;;;23.23;25.99;98978.47;4357802;80;21171;-94
2021/04/11 10:33:16;;;;;;;2.00;1.05;;;;;;;22.96;23.89;98978.34;4403183;80;21198;-94
2021/04/11 10:39:24;;;;;;;;;;;;;;;22.69;24.69;98984.41;4366873;80;21204;-94
2021/04/11 10:45:37;;;;;;;4.10;1.10;;;;;;;23.27;25.09;98996.52;4376717;80;20180;-94
2021/04/11 10:51:48;;;;;;;2.50;1.20;;;;;;;23.71;25.08;98967.13;4300789;80;21196;-94
2021/04/11 10:58:36;;;;;;;2.95;1.52;;;;;;;23.76;24.12;98983.28;4347578;80;21141;-93
2021/04/11 11:05:01;;;;;;;4.45;0.90;;;;;;;23.39;25.10;98991.43;4349022;80;21508;-94
2021/04/11 11:11:19;;;;;;;3.30;1.67;;;;;;;23.39;25.10;98991.43;4342639;80;21185;-93
2021/04/11 11:17:48;;;;;;;2.17;1.02;;;;;;;24.60;24.60;98994.20;4381799;80;21579;-93
2021/04/11 11:24:23;;;;;;;2.75;1.10;;;;;;;24.77;23.78;99008.03;4345452;80;21178;-94
2021/04/11 11:31:08;;;;;;;3.37;0.95;;;;;;;23.36;24.76;98995.15;4330170;80;21203;-93
2021/04/11 11:37:21;;;;;;;1.95;0.80;;;;;;;23.41;26.18;98993.77;4299909;80;21177;-93
2021/04/11 11:43:37;;;;;;;2.60;0.62;;;;;;;24.42;25.26;99001.20;4349145;80;21186;-94
2021/04/11 11:50:13;;;;;;;2.22;0.60;;;;;;;24.40;25.00;98996.08;4376030;80;21179;-95
2021/04/11 11:56:32;;;;;;;2.02;0.80;;;;;;;23.39;25.44;98990.64;4346908;80;21148;-95
2021/04/11 12:03:04;;;;;;;2.15;0.78;;;;;;;22.21;26.79;99000.29;4320989;80;21677;-95
2021/04/11 12:09:31;;;;;;;2.67;0.75;;;;;;;21.65;30.18;99003.00;4583756;76;22828;-92
2021/04/11 12:15:44;;;;;;;3.75;0.78;;;;;;;21.19;29.52;99000.95;4476964;79;21160;-91
2021/04/11 12:21:59;;;;;;;3.35;0.88;;;;;;;20.79;29.96;98993.59;4508521;79;21109;-94
2021/04/11 12:28:24;;;;;;;2.75;0.95;;;;;;;20.59;30.96;98999.95;4489770;79;21140;-88
2021/04/11 12:34:47;;;;;;;2.62;0.70;;;;;;;21.04;31.05;99000.60;4490727;78;21149;-94
2021/04/11 12:41:08;;;;;;;1.15;0.72;;;;;;;20.83;31.69;99010.19;4416851;79;21152;-96
2021/04/11 12:47:24;;;;;;;1.75;1.15;;;;;;;19.90;32.97;99015.94;4398868;81;21185;-96
2021/04/11 12:53:46;;;;;;;3.37;0.80;;;;;;;19.22;33.83;99017.98;4473300;79;21658;-95
2021/04/11 13:00:10;;;;;;;3.25;0.90;;;;;;;18.73;34.03;99025.41;4395052;81;21160;-95
2021/04/11 13:06:49;;;;;;;2.52;1.20;;;;;;;18.66;34.40;99011.11;4313013;82;21190;-94
2021/04/11 13:12:56;;;;;;;3.87;1.67;;;;;;;18.40;34.18;99006.48;4396875;81;21113;-95
2021/04/11 13:19:20;;;;;;;2.58;1.42;;;;;;;18.14;36.26;99020.43;4394175;81;21173;-94
2021/04/11 13:25:36;;;;;;;4.87;2.33;;;;;;;17.75;36.58;99033.60;4392319;81;21187;-95
2021/04/11 13:32:01;;;;;;;5.47;2.75;;;;;;;17.24;36.90;99040.30;4358160;81;21161;-95
2021/04/11 13:38:27;;;;;;;10.25;4.72;;;;;;;16.88;37.28;99044.00;4352053;81;21145;-94
2021/04/11 13:44:44;;;;;;;3.80;1.57;;;;;;;16.71;37.99;99044.41;4356932;81;21159;-95
2021/04/11 13:51:15;;;;;;;4.10;1.27;;;;;;;16.70;37.91;99043.44;4323822;81;21137;-94
2021/04/11 13:57:37;;;;;;;4.22;1.50;;;;;;;16.58;37.96;99033.73;4364650;80;21145;-94
2021/04/11 14:03:58;;;;;;;2.75;1.30;;;;;;;16.53;38.60;99031.42;4345043;81;21201;-94
2021/04/11 14:10:23;;;;;;;4.20;1.65;;;;;;;16.46;39.01;99029.34;4344979;81;21141;-94
2021/04/11 14:16:54;;;;;;;5.50;2.42;;;;;;;16.15;39.55;99035.37;4337189;81;21167;-93
2021/04/11 14:23:08;;;;;;;3.90;2.47;;;;;;;16.05;39.78;99034.11;4344589;80;21395;-93
2021/04/11 14:29:27;;;;;;;6.42;2.10;;;;;;;15.64;41.07;99038.23;4351137;81;21161;-93
2021/04/11 14:35:46;;;;;;;5.00;2.30;;;;;;;15.12;42.72;99036.62;4361732;80;21936;-94
2021/04/11 14:41:56;;;;;;;7.20;2.75;;;;;;;14.85;44.41;99033.63;4331814;80;21168;-93
2021/04/11 14:48:13;;;;;;;38.83;22.42;;;;;;;14.59;45.05;99043.00;4358752;81;21147;-92
2021/04/11 14:54:29;;;;;;;25.15;14.53;;;;;;;14.47;45.91;99045.59;4339588;80;21141;-91
2021/04/11 15:00:52;;;;;;;16.25;8.58;;;;;;;14.38;45.44;99038.36;4342476;80;21145;-90
2021/04/11 15:07:17;;;;;;;14.05;6.20;;;;;;;14.40;46.28;99047.59;4353310;81;21131;-92
2021/04/11 15:13:55;;;;;;;11.75;4.65;;;;;;;14.43;47.85;99053.68;4351306;80;21176;-91
2021/04/11 15:20:11;;;;;;;6.70;2.67;;;;;;;14.31;47.35;99045.86;4348407;80;21584;-92
2021/04/11 15:26:36;;;;;;;5.22;2.60;;;;;;;14.20;49.69;99050.00;4350228;81;21157;-92
2021/04/11 15:32:57;;;;;;;5.92;2.80;;;;;;;13.94;50.37;99058.68;4383710;80;21593;-93
2021/04/11 15:39:18;;;;;;;6.62;3.25;;;;;;;13.69;49.69;99073.05;4330029;80;21167;-92
2021/04/11 15:46:10;;;;;;;8.98;2.75;;;;;;;13.53;50.42;99074.81;4386223;81;21168;-95
2021/04/11 15:52:22;;;;;;;10.20;3.60;;;;;;;13.37;51.84;99077.76;4359814;81;21174;-94
2021/04/11 15:58:40;;;;;;;8.63;3.15;;;;;;;13.21;52.37;99073.21;4350794;81;21135;-94
2021/04/11 16:05:04;;;;;;;10.25;3.98;;;;;;;12.90;53.72;99072.52;4329500;82;21173;-93
2021/04/11 16:11:23;;;;;;;11.00;4.08;;;;;;;12.66;54.75;99060.27;4309426;82;21145;-93
2021/04/11 16:18:02;;;;;;;12.58;6.10;;;;;;;12.52;56.25;99075.31;4350714;81;21554;-93
2021/04/11 16:24:26;;;;;;;16.55;8.78;;;;;;;12.41;57.34;99084.09;4355980;81;21150;-91
2021/04/11 16:30:39;;;;;;;22.65;13.00;;;;;;;12.33;58.48;99090.12;4334055;81;21161;-93
2021/04/11 16:44:31;;;;;;;13.45;7.30;;;;;;;12.27;59.14;99086.18;4337947;81;21499;-91
2021/04/11 16:50:41;;;;;;;11.28;7.05;;;;;;;12.13;59.06;99077.86;4353322;81;21171;-90
2021/04/11 16:56:49;;;;;;;15.08;8.38;;;;;;;11.93;59.65;99075.16;4336071;81;21129;-91
2021/04/11 17:03:24;;;;;;;19.55;11.12;;;;;;;11.79;60.59;99082.52;4340656;81;21154;-91
2021/04/11 17:09:29;;;;;;;26.42;15.85;;;;;;;11.69;61.01;99077.73;4318280;81;21225;-91
2021/04/11 17:23:23;;;;;;;25.35;12.35;;;;;;;11.57;62.54;99074.69;4323982;82;21443;-93
2021/04/11 17:29:40;;;;;;;30.32;18.48;;;;;;;11.51;63.11;99082.27;4353797;81;21757;-92
2021/04/11 17:36:09;;;;;;;;;;;;;;;11.50;63.35;99084.78;4393089;80;21304;-92
2021/04/11 17:42:46;;;;;;;26.77;15.25;;;;;;;11.29;65.50;99097.70;4383284;80;20611;-90
2021/04/11 17:49:15;;;;;;;25.37;14.00;;;;;;;11.42;64.90;99103.70;4324245;80;21183;-90
2021/04/11 17:55:28;;;;;;;27.32;16.32;;;;;;;11.39;65.11;99107.99;4324093;80;21200;-91
2021/04/11 18:01:38;;;;;;;46.85;23.47;;;;;;;11.32;65.58;99107.94;4319375;81;21196;-89
2021/04/11 18:08:00;;;;;;;46.35;26.23;;;;;;;11.13;66.21;99105.39;4274388;81;21159;-91
2021/04/11 18:14:33;;;;;;;35.20;22.20;;;;;;;10.99;66.68;99105.23;4274138;82;21199;-86
2021/04/11 18:20:43;;;;;;;43.00;27.85;;;;;;;10.94;67.48;99118.69;4271224;82;21166;-86
2021/04/11 18:27:03;;;;;;;34.58;21.15;;;;;;;10.86;67.85;99120.34;4275928;81;21306;-86
2021/04/11 18:33:51;;;;;;;39.27;27.80;;;;;;;10.79;68.26;99118.30;4269877;82;21220;-86
2021/04/11 18:47:24;;;;;;;39.13;23.00;;;;;;;10.89;69.90;99126.43;4532176;77;22630;-86
2021/04/11 18:54:06;;;;;;;30.72;16.75;;;;;;;10.90;68.97;99121.95;4486920;78;21150;-86
2021/04/11 19:00:52;;;;;;;35.33;18.52;;;;;;;10.94;67.73;99127.48;4480933;78;21568;-86
2021/04/11 19:07:04;;;;;;;25.08;13.90;;;;;;;10.93;67.61;99128.65;4474301;78;21145;-85
2021/04/11 19:13:32;;;;;;;26.40;14.07;;;;;;;10.88;67.72;99132.48;4474257;78;21185;-85
2021/04/11 19:19:55;;;;;;;23.75;11.03;;;;;;;10.88;68.19;99135.22;4473875;78;21217;-85
2021/04/11 19:26:05;;;;;;;26.87;12.98;;;;;;;10.84;68.30;99128.92;4482451;78;21182;-85
2021/04/11 19:32:58;;;;;;;20.72;11.25;;;;;;;10.77;68.21;99128.83;4478524;78;21574;-86
2021/04/11 19:39:33;;;;;;;35.25;16.23;;;;;;;10.75;68.23;99131.73;4472484;78;21154;-86
2021/04/11 19:45:50;;;;;;;40.15;18.30;;;;;;;10.81;68.24;99128.30;4423605;78;21189;-86
2021/04/11 19:52:12;;;;;;;27.33;14.17;;;;;;;10.84;68.04;99130.30;4392567;79;21115;-85
2021/04/11 19:58:32;;;;;;;24.30;11.10;;;;;;;10.84;67.90;99125.39;4400606;79;21197;-86
2021/04/11 20:05:03;;;;;;;18.67;9.83;;;;;;;10.84;68.01;99128.92;4394508;79;21145;-86
2021/04/11 20:11:53;;;;;;;18.67;9.13;;;;;;;10.86;67.71;99123.08;4394766;79;21154;-84
2021/04/11 20:18:20;;;;;;;16.45;8.35;;;;;;;10.81;67.44;99123.40;4393932;80;21145;-84
2021/04/11 20:24:34;;;;;;;16.23;7.73;;;;;;;10.85;67.11;99118.17;4401569;80;21145;-84
2021/04/11 20:31:02;;;;;;;17.57;8.98;;;;;;;10.89;66.99;99111.38;4395456;80;21129;-85
2021/04/11 20:37:27;;;;;;;12.28;7.10;;;;;;;10.92;66.60;99110.05;4397524;80;21161;-84
2021/04/11 20:43:54;;;;;;;11.05;6.50;;;;;;;10.94;66.25;99109.67;4397553;78;21213;-85
2021/04/11 20:50:12;;;;;;;13.20;8.43;;;;;;;11.00;65.73;99090.37;4484096;78;21137;-85
2021/04/11 20:56:31;;;;;;;11.05;6.25;;;;;;;11.02;65.39;99088.81;4487725;78;21172;-85
2021/04/11 21:03:01;;;;;;;15.45;8.00;;;;;;;11.07;64.80;99078.13;4310971;81;21170;-85
2021/04/11 21:09:44;;;;;;;12.35;5.80;;;;;;;11.17;63.48;99075.27;4345737;80;21310;-85
2021/04/11 21:16:08;;;;;;;12.63;5.62;;;;;;;11.22;62.74;99070.25;4351760;81;21633;-85
2021/04/11 21:22:27;;;;;;;10.08;5.83;;;;;;;11.29;62.49;99075.02;4356700;81;21282;-85
2021/04/11 21:28:54;;;;;;;10.10;5.20;;;;;;;11.31;61.98;99069.34;4362233;81;21214;-85
2021/04/11 21:35:30;;;;;;;10.98;5.35;;;;;;;11.32;61.69;99064.09;4360182;81;21624;-85
2021/04/11 21:41:52;;;;;;;9.03;5.70;;;;;;;11.29;61.18;99060.70;4334125;81;21679;-85
2021/04/11 21:48:21;;;;;;;10.68;5.55;;;;;;;11.18;61.76;99054.37;4322332;81;21591;-84
2021/04/11 21:54:49;;;;;;;9.28;6.22;;;;;;;10.98;62.00;99059.25;4333064;81;21165;-84
2021/04/11 22:01:23;;;;;;;11.53;6.12;;;;;;;10.73;62.38;99063.66;4315472;81;21416;-85
2021/04/11 22:07:56;;;;;;;11.45;6.65;;;;;;;10.50;62.51;99054.79;4307582;81;21301;-84
2021/04/11 22:14:11;;;;;;;16.57;7.40;;;;;;;10.30;62.72;99058.05;4316099;81;21175;-84
2021/04/11 22:20:30;;;;;;;12.50;6.33;;;;;;;10.22;63.08;99061.27;4325670;81;21173;-84
2021/04/11 22:27:06;;;;;;;;;;;;;;;;;;;;;
2021/04/11 22:33:09;;;;;;;;;;;;;;;10.05;63.56;99067.83;4315515;81;21167;-82
2021/04/11 22:39:22;;;;;;;13.08;7.62;;;;;;;9.95;63.98;99069.25;4312815;81;20496;-83
2021/04/11 22:45:52;;;;;;;13.83;7.53;;;;;;;9.91;63.91;99068.42;4302022;81;21277;-82
2021/04/11 22:51:59;;;;;;;12.43;8.08;;;;;;;9.90;63.93;99064.69;4327447;81;21225;-82
2021/04/11 22:58:19;;;;;;;12.03;7.30;;;;;;;9.85;63.95;99063.63;4326907;81;21974;-82
2021/04/11 23:04:28;;;;;;;12.73;7.33;;;;;;;9.87;64.09;99061.30;4317459;81;21745;-83
2021/04/11 23:10:56;;;;;;;11.97;7.62;;;;;;;9.87;64.21;99059.36;4318164;81;21449;-83
2021/04/11 23:17:09;;;;;;;15.53;8.23;;;;;;;9.90;64.28;99047.69;4328736;81;21189;-83
2021/04/11 23:23:28;;;;;;;13.10;7.60;;;;;;;9.88;64.23;99040.42;4323805;81;21661;-83
2021/04/11 23:29:47;;;;;;;14.15;8.20;;;;;;;9.80;64.21;99028.41;4323666;81;21154;-84
2021/04/11 23:36:19;;;;;;;14.90;9.45;;;;;;;9.63;64.27;99029.73;4329008;81;21189;-85
2021/04/11 23:42:43;;;;;;;12.80;7.33;;;;;;;9.38;64.47;99018.98;4322380;81;21153;-84
2021/04/11 23:48:49;;;;;;;14.50;8.75;;;;;;;9.12;64.66;99018.92;4331411;81;21141;-85
2021/04/11 23:54:59;;;;;;;19.60;11.13;;;;;;;8.65;64.92;99016.52;4323167;81;21281;-85
